Guadalupe, Arizona
Current Conditions -  °F | °C
As of 4:51 AM on Wednesday 28 Jan 2015 (Local Time) from KPHX Reporting Station
Few Clouds Few Clouds  
Wind Chill: 13°   Ceiling: Unl
Heat Index: 13°   Visibility: 10mi
Dew Point: 10°   Wind: 3mph
Humidity: 80%   Direction: 20°NNE
Pressure: 30.15"   Gusts: NA
Location:  33.364°N, 111.931°W
Report Text: KPHX 281151Z 02003KT 10SM FEW130 13/10 A3015 RMK AO2 SLP199 T01330100 10178 20122 50006
Loading
Personal Weather Stations






























Interactive Weather Map New forecast layout! Learn more

10-Day Weather Forecast

Advertisements
Track Severe Weather on mobile